Pine Grove Furnace, Pennsylvania
Current Conditions -  °F | °C
As of 6:53 PM on Thursday 27 Nov 2014 (Local Time) from KTHV Reporting Station
Haze Haze  
Wind Chill: 32°   Ceiling: 7500
Heat Index: 32°   Visibility: 5mi
Dew Point: 30°   Wind: 0mph
Humidity: 92%   Direction: NA
Pressure: 30.09"   Gusts: NA
Location:  40.0362°N, 77.1908°W
Report Text: KTHV 272353Z AUTO 00000KT 5SM BR OVC075 00/M01 A3009 RMK AO2 SNE01 SLP198 P0001 60001 T00001011 10033 20000 51015
Loading
Personal Weather Stations






























Interactive Weather Map New forecast layout! Learn more

10-Day Weather Forecast

Advertisements
Track Severe Weather on mobile